createdAt,value
2023-08-02T00:01:57.057Z,16.09
2023-08-02T00:04:25.228Z,16.05
2023-08-02T00:06:53.297Z,16.03
2023-08-02T00:09:21.405Z,16.03
2023-08-02T00:11:52.650Z,16.04
2023-08-02T00:14:20.777Z,15.98
2023-08-02T00:16:49.078Z,15.97
2023-08-02T00:19:17.716Z,15.98
2023-08-02T00:21:45.924Z,15.99
2023-08-02T00:24:13.974Z,15.94
2023-08-02T00:26:41.993Z,15.91
2023-08-02T00:29:10.049Z,15.89
2023-08-02T00:31:38.117Z,15.90
2023-08-02T00:34:06.173Z,15.90
2023-08-02T00:36:34.269Z,15.89
2023-08-02T00:39:02.360Z,15.88
2023-08-02T00:41:30.437Z,15.84
2023-08-02T00:43:58.577Z,15.82
2023-08-02T00:46:26.819Z,15.81
2023-08-02T00:48:54.953Z,15.82
2023-08-02T00:51:23.012Z,15.83
2023-08-02T00:53:51.002Z,15.81
2023-08-02T00:56:20.462Z,15.77
2023-08-02T00:58:48.520Z,15.71
2023-08-02T01:01:16.624Z,15.71
2023-08-02T01:03:47.000Z,15.66
2023-08-02T01:06:24.908Z,15.66
2023-08-02T01:08:59.033Z,15.68
2023-08-02T01:11:38.491Z,15.63
2023-08-02T01:14:07.471Z,15.62
2023-08-02T01:16:36.119Z,15.60
2023-08-02T01:19:04.198Z,15.60
2023-08-02T01:21:32.214Z,15.57
2023-08-02T01:24:00.188Z,15.52
2023-08-02T01:26:28.784Z,15.54
2023-08-02T01:28:57.558Z,15.50
2023-08-02T01:31:25.658Z,15.50
2023-08-02T01:33:55.238Z,15.47
2023-08-02T01:36:23.269Z,15.44
2023-08-02T01:38:51.406Z,15.43
2023-08-02T01:41:19.401Z,15.39
2023-08-02T01:43:47.487Z,15.40
2023-08-02T01:46:15.610Z,15.38
2023-08-02T01:48:43.624Z,15.42
2023-08-02T01:51:11.611Z,15.40
2023-08-02T01:53:39.590Z,15.37
2023-08-02T01:56:07.666Z,15.38
2023-08-02T01:58:35.861Z,15.37
2023-08-02T02:01:04.113Z,15.36
2023-08-02T02:03:32.355Z,15.40
2023-08-02T02:06:00.575Z,15.38
2023-08-02T02:08:28.667Z,15.34
2023-08-02T02:10:56.941Z,15.34
2023-08-02T02:13:26.294Z,15.35
2023-08-02T02:15:54.485Z,15.36
2023-08-02T02:18:22.560Z,15.35
2023-08-02T02:20:50.593Z,15.32
2023-08-02T02:23:18.637Z,15.34
2023-08-02T02:25:46.637Z,15.31
2023-08-02T02:28:14.746Z,15.24
2023-08-02T02:30:45.892Z,15.23
2023-08-02T02:33:13.918Z,15.22
2023-08-02T02:35:41.991Z,15.20
2023-08-02T02:38:10.005Z,15.20
2023-08-02T02:40:38.062Z,15.17
2023-08-02T02:43:06.232Z,15.19
2023-08-02T02:45:34.232Z,15.21
2023-08-02T02:48:02.314Z,15.25
2023-08-02T02:50:30.872Z,15.25
2023-08-02T02:52:58.888Z,15.30
2023-08-02T02:55:26.941Z,15.32
2023-08-02T02:57:55.376Z,15.35
2023-08-02T03:00:23.389Z,15.38
2023-08-02T03:02:53.470Z,15.43
2023-08-02T03:05:21.521Z,15.42
2023-08-02T03:07:49.498Z,15.41
2023-08-02T03:10:18.450Z,15.40
2023-08-02T03:12:48.444Z,15.43
2023-08-02T03:15:19.167Z,15.44
2023-08-02T03:17:47.307Z,15.51
2023-08-02T03:20:15.283Z,15.53
2023-08-02T03:22:43.350Z,15.55
2023-08-02T03:25:11.481Z,15.56
2023-08-02T03:27:39.556Z,15.57
2023-08-02T03:30:08.508Z,15.56
2023-08-02T03:32:36.570Z,15.59
2023-08-02T03:35:04.647Z,15.65
2023-08-02T03:37:32.636Z,15.66
2023-08-02T03:40:00.680Z,15.70
2023-08-02T03:42:28.708Z,15.74
2023-08-02T03:44:56.792Z,15.75
2023-08-02T03:47:27.566Z,15.76
2023-08-02T03:49:55.804Z,15.80
2023-08-02T03:52:23.936Z,15.84
2023-08-02T03:54:51.930Z,15.89
2023-08-02T03:57:24.539Z,15.91
2023-08-02T03:59:52.630Z,15.94
2023-08-02T04:02:20.760Z,15.95
2023-08-02T04:04:48.827Z,15.95
2023-08-02T04:07:17.024Z,15.98
2023-08-02T04:09:45.023Z,15.99
2023-08-02T04:12:13.151Z,16.00
2023-08-02T04:14:41.275Z,16.03
2023-08-02T04:17:09.310Z,16.01
2023-08-02T04:19:40.051Z,16.01
2023-08-02T04:22:08.235Z,16.01
2023-08-02T04:24:36.438Z,16.00
2023-08-02T04:27:06.732Z,16.03
2023-08-02T04:29:36.117Z,16.03
2023-08-02T04:32:04.228Z,16.05
2023-08-02T04:34:32.255Z,16.05
2023-08-02T04:37:00.283Z,16.05
2023-08-02T04:39:28.350Z,16.07
2023-08-02T04:41:56.948Z,15.99
2023-08-02T04:44:24.912Z,15.98
2023-08-02T04:46:53.062Z,15.99
2023-08-02T04:49:23.869Z,15.97
2023-08-02T04:51:54.756Z,15.98
2023-08-02T04:54:22.796Z,15.98
2023-08-02T04:56:50.878Z,15.98
2023-08-02T04:59:21.652Z,15.99
2023-08-02T05:01:50.801Z,16.00
2023-08-02T05:04:18.936Z,16.02
2023-08-02T05:06:47.171Z,16.05
2023-08-02T05:09:17.997Z,16.09
2023-08-02T05:11:48.403Z,16.12
2023-08-02T05:14:16.495Z,16.16
2023-08-02T05:16:45.195Z,16.18
2023-08-02T05:19:13.290Z,16.20
2023-08-02T05:21:41.655Z,16.19
2023-08-02T05:24:09.924Z,16.20
2023-08-02T05:26:38.014Z,16.21
2023-08-02T05:29:06.154Z,16.22
2023-08-02T05:31:34.339Z,16.16
2023-08-02T05:34:02.513Z,16.08
2023-08-02T05:36:30.706Z,16.06
2023-08-02T05:38:58.713Z,16.06
2023-08-02T05:41:26.718Z,16.05
2023-08-02T05:43:54.814Z,16.08
2023-08-02T05:46:22.977Z,16.14
2023-08-02T05:48:51.774Z,16.19
2023-08-02T05:51:19.872Z,16.23
2023-08-02T05:53:47.997Z,16.24
2023-08-02T05:56:16.079Z,16.27
2023-08-02T05:58:44.118Z,16.30
2023-08-02T06:01:12.317Z,16.32
2023-08-02T06:03:40.488Z,16.33
2023-08-02T06:06:08.606Z,16.29
2023-08-02T06:08:36.635Z,16.27
2023-08-02T06:11:05.001Z,16.34
2023-08-02T06:13:33.242Z,16.34
2023-08-02T06:16:01.263Z,16.36
2023-08-02T06:18:29.340Z,16.34
2023-08-02T06:20:57.436Z,16.35
2023-08-02T06:23:25.608Z,16.33
2023-08-02T06:25:54.322Z,16.34
2023-08-02T06:28:22.372Z,16.34
2023-08-02T06:30:50.468Z,16.33
2023-08-02T06:33:18.713Z,16.45
2023-08-02T06:35:46.805Z,16.51
2023-08-02T06:38:14.836Z,16.51
2023-08-02T06:40:42.878Z,16.54
2023-08-02T06:43:10.916Z,16.54
2023-08-02T06:45:38.980Z,16.47
2023-08-02T06:48:08.013Z,16.45
2023-08-02T06:50:39.917Z,16.48
2023-08-02T06:53:08.284Z,16.48
2023-08-02T06:55:36.563Z,16.49
2023-08-02T06:58:04.681Z,16.48
2023-08-02T07:00:32.982Z,16.50
2023-08-02T07:03:02.179Z,16.52
2023-08-02T07:05:31.516Z,16.51
2023-08-02T07:08:00.182Z,16.50
2023-08-02T07:10:28.788Z,16.48
2023-08-02T07:12:57.548Z,16.46
2023-08-02T07:15:25.629Z,16.46
2023-08-02T07:17:54.544Z,16.45
2023-08-02T07:20:22.959Z,16.43
2023-08-02T07:22:51.094Z,16.44
2023-08-02T07:25:19.202Z,16.45
2023-08-02T07:27:47.250Z,16.45
2023-08-02T07:30:15.296Z,16.47
2023-08-02T07:32:44.074Z,16.52
2023-08-02T07:35:12.210Z,16.51
2023-08-02T07:37:40.381Z,16.54
2023-08-02T07:40:08.961Z,16.57
2023-08-02T07:42:37.002Z,16.57
2023-08-02T07:45:09.646Z,16.52
2023-08-02T07:47:37.929Z,16.55
2023-08-02T07:50:07.014Z,16.61
2023-08-02T07:52:35.150Z,16.64
2023-08-02T07:55:03.276Z,16.64
2023-08-02T07:57:35.434Z,16.66
2023-08-02T08:00:03.610Z,16.67
2023-08-02T08:02:31.803Z,16.72
2023-08-02T08:04:59.887Z,16.74
2023-08-02T08:07:28.010Z,16.76
2023-08-02T08:09:56.072Z,16.78
2023-08-02T08:12:24.243Z,16.82
2023-08-02T08:14:52.239Z,16.85
2023-08-02T08:17:20.308Z,16.90
2023-08-02T08:19:49.565Z,16.94
2023-08-02T08:22:17.638Z,17.00
2023-08-02T08:24:45.994Z,17.04
2023-08-02T08:27:14.079Z,17.10
2023-08-02T08:29:42.081Z,17.20
2023-08-02T08:32:10.432Z,17.34
2023-08-02T08:34:38.452Z,17.44
2023-08-02T08:37:06.519Z,17.56
2023-08-02T08:39:34.566Z,17.68
2023-08-02T08:42:02.723Z,17.94
2023-08-02T08:44:30.972Z,18.25
2023-08-02T08:47:03.432Z,18.33
2023-08-02T08:49:31.695Z,18.31
2023-08-02T08:52:00.298Z,18.22
2023-08-02T08:54:28.680Z,18.22
2023-08-02T08:56:56.628Z,18.28
2023-08-02T08:59:25.192Z,18.33
2023-08-02T09:01:53.364Z,18.45
2023-08-02T09:04:21.554Z,18.53
2023-08-02T09:06:49.715Z,18.49
2023-08-02T09:09:17.802Z,18.49
2023-08-02T09:11:45.904Z,18.52
2023-08-02T09:14:18.481Z,18.56
2023-08-02T09:17:00.649Z,18.67
2023-08-02T09:19:30.457Z,18.84
2023-08-02T09:22:17.662Z,19.00
2023-08-02T09:24:46.563Z,19.13
2023-08-02T09:27:19.823Z,19.15
2023-08-02T09:29:52.344Z,19.17
2023-08-02T09:32:23.931Z,19.19
2023-08-02T09:34:56.297Z,19.16
2023-08-02T09:37:32.253Z,19.22
2023-08-02T09:40:00.860Z,19.26
2023-08-02T09:42:29.773Z,19.35
2023-08-02T09:45:00.094Z,19.47
2023-08-02T09:47:29.345Z,19.62
2023-08-02T09:50:23.928Z,19.71
2023-08-02T09:52:51.979Z,20.04
2023-08-02T09:55:20.092Z,20.51
2023-08-02T09:57:49.244Z,21.07
2023-08-02T10:00:18.061Z,21.55
2023-08-02T10:05:16.351Z,22.18
2023-08-02T10:07:49.667Z,22.43
2023-08-02T10:10:29.876Z,22.78
2023-08-02T10:13:29.560Z,23.05
2023-08-02T10:15:57.674Z,23.09
2023-08-02T10:18:26.780Z,23.14
2023-08-02T10:20:54.996Z,23.42
2023-08-02T10:23:22.960Z,23.55
2023-08-02T10:25:50.986Z,23.79
2023-08-02T10:28:19.119Z,24.07
2023-08-02T10:30:47.181Z,24.37
2023-08-02T10:33:16.665Z,24.70
2023-08-02T10:36:01.138Z,25.02
2023-08-02T10:38:55.369Z,25.42
2023-08-02T10:41:28.103Z,25.58
2023-08-02T10:43:56.076Z,25.95
2023-08-02T10:46:29.156Z,26.31
2023-08-02T10:48:58.444Z,26.57
2023-08-02T10:51:29.450Z,26.58
2023-08-02T10:54:18.571Z,26.58
2023-08-02T10:56:58.818Z,26.83
2023-08-02T10:59:27.061Z,27.15
2023-08-02T11:02:10.835Z,27.57
2023-08-02T11:04:42.585Z,27.62
2023-08-02T11:07:18.813Z,27.39
2023-08-02T11:09:48.020Z,27.45
2023-08-02T11:12:20.476Z,27.45
2023-08-02T11:14:52.295Z,27.58
2023-08-02T11:22:28.350Z,27.31
2023-08-02T11:24:58.083Z,27.05
2023-08-02T11:27:53.696Z,26.96
2023-08-02T11:30:15.415Z,26.91
2023-08-02T11:32:48.081Z,26.80
2023-08-02T11:35:19.554Z,26.76
2023-08-02T11:37:47.968Z,26.77
2023-08-02T11:42:56.597Z,26.96
2023-08-02T11:45:34.862Z,27.17
2023-08-02T11:50:34.200Z,27.11
2023-08-02T11:53:09.883Z,27.33
2023-08-02T11:55:38.414Z,27.63
2023-08-02T11:58:10.370Z,27.82
2023-08-02T12:00:39.556Z,28.14
2023-08-02T12:03:11.696Z,28.18
2023-08-02T12:05:39.840Z,27.90
2023-08-02T12:08:17.460Z,27.45
2023-08-02T12:10:46.025Z,27.42
2023-08-02T12:13:17.076Z,27.62
2023-08-02T12:16:08.773Z,27.78
2023-08-02T12:18:54.396Z,28.30
2023-08-02T12:21:23.138Z,28.29
2023-08-02T12:23:51.259Z,28.40
2023-08-02T12:26:34.526Z,28.60
2023-08-02T12:29:03.237Z,28.59
2023-08-02T12:31:46.540Z,28.45
2023-08-02T12:34:14.702Z,28.78
2023-08-02T12:36:43.095Z,28.89
2023-08-02T12:39:11.380Z,29.27
2023-08-02T12:41:39.535Z,29.76
2023-08-02T12:44:07.786Z,29.94
2023-08-02T12:46:35.932Z,30.14
2023-08-02T12:49:04.056Z,30.73
2023-08-02T12:51:32.116Z,30.63
2023-08-02T12:54:00.603Z,30.72
2023-08-02T12:56:29.341Z,31.20
2023-08-02T12:58:57.474Z,31.45
2023-08-02T13:01:25.586Z,31.63
2023-08-02T13:03:53.821Z,31.48
2023-08-02T13:06:22.020Z,31.82
2023-08-02T13:08:50.376Z,31.53
2023-08-02T13:11:18.526Z,31.43
2023-08-02T13:13:46.813Z,31.65
2023-08-02T13:16:15.007Z,31.69
2023-08-02T13:18:43.205Z,31.89
2023-08-02T13:21:11.274Z,31.96
2023-08-02T13:23:39.330Z,31.78
2023-08-02T13:26:07.470Z,31.70
2023-08-02T13:28:35.515Z,31.62
2023-08-02T13:31:04.585Z,31.78
2023-08-02T13:33:32.744Z,32.18
2023-08-02T13:36:00.727Z,32.39
2023-08-02T13:38:28.948Z,32.73
2023-08-02T13:40:59.825Z,32.61
2023-08-02T13:43:28.922Z,32.86
2023-08-02T13:45:57.152Z,33.09
2023-08-02T13:48:25.414Z,32.98
2023-08-02T13:50:54.853Z,33.03
2023-08-02T13:53:23.317Z,33.08
2023-08-02T13:55:51.393Z,32.98
2023-08-02T13:58:19.396Z,32.94
2023-08-02T14:00:47.580Z,32.62
2023-08-02T14:03:15.585Z,32.71
2023-08-02T14:05:43.689Z,32.78
2023-08-02T14:08:11.822Z,32.75
2023-08-02T14:10:43.135Z,32.77
2023-08-02T14:13:13.020Z,32.46
2023-08-02T14:15:41.196Z,32.44
2023-08-02T14:18:09.322Z,32.43
2023-08-02T14:20:37.418Z,32.23
2023-08-02T14:23:05.446Z,31.81
2023-08-02T14:25:33.745Z,31.72
2023-08-02T14:28:02.029Z,31.67
2023-08-02T14:30:30.142Z,31.44
2023-08-02T14:32:58.377Z,31.28
2023-08-02T14:35:26.534Z,31.35
2023-08-02T14:37:54.619Z,31.36
2023-08-02T14:40:23.098Z,31.28
2023-08-02T14:42:51.246Z,30.99
2023-08-02T14:45:19.447Z,30.77
2023-08-02T14:47:47.776Z,30.73
2023-08-02T14:50:15.984Z,30.76
2023-08-02T14:52:43.972Z,30.73
2023-08-02T14:55:12.034Z,30.60
2023-08-02T14:57:40.191Z,30.51
2023-08-02T15:00:08.808Z,30.51
2023-08-02T15:02:38.312Z,30.42
2023-08-02T15:05:06.647Z,30.34
2023-08-02T15:07:34.942Z,30.20
2023-08-02T15:10:03.042Z,30.06
2023-08-02T15:12:31.164Z,30.00
2023-08-02T15:14:59.273Z,29.90
2023-08-02T15:17:27.364Z,29.77
2023-08-02T15:19:55.848Z,29.76
2023-08-02T15:22:24.091Z,29.63
2023-08-02T15:24:52.309Z,29.49
2023-08-02T15:27:20.391Z,29.37
2023-08-02T15:29:48.578Z,29.39
2023-08-02T15:32:16.823Z,29.34
2023-08-02T15:34:44.837Z,29.29
2023-08-02T15:37:16.130Z,29.23
2023-08-02T15:39:44.203Z,29.06
2023-08-02T15:42:12.436Z,29.07
2023-08-02T15:44:40.450Z,29.03
2023-08-02T15:47:08.568Z,28.98
2023-08-02T15:49:36.621Z,28.90
2023-08-02T15:52:05.073Z,28.83
2023-08-02T15:54:33.201Z,28.75
2023-08-02T15:57:01.385Z,28.67
2023-08-02T15:59:32.208Z,28.66
2023-08-02T16:02:00.502Z,28.60
2023-08-02T16:04:28.861Z,28.59
2023-08-02T16:06:57.744Z,28.54
2023-08-02T16:09:25.886Z,28.51
2023-08-02T16:11:53.938Z,28.48
2023-08-02T16:14:22.239Z,28.39
2023-08-02T16:16:50.453Z,28.34
2023-08-02T16:19:18.568Z,28.26
2023-08-02T16:21:46.730Z,28.20
2023-08-02T16:24:15.020Z,28.15
2023-08-02T16:26:44.077Z,28.07
2023-08-02T16:29:12.281Z,27.99
2023-08-02T16:31:40.955Z,27.93
2023-08-02T16:34:09.364Z,27.88
2023-08-02T16:36:37.423Z,27.83
2023-08-02T16:39:05.761Z,27.77
2023-08-02T16:41:33.818Z,27.74
2023-08-02T16:44:02.015Z,27.70
2023-08-02T16:46:30.339Z,27.68
2023-08-02T16:48:59.408Z,27.61
2023-08-02T16:51:27.539Z,27.54
2023-08-02T16:53:55.758Z,27.45
2023-08-02T16:56:25.462Z,27.37
2023-08-02T16:58:53.645Z,27.28
2023-08-02T17:01:21.792Z,27.23
2023-08-02T17:03:51.477Z,27.21
2023-08-02T17:06:19.868Z,27.18
2023-08-02T17:08:48.076Z,27.16
2023-08-02T17:11:16.141Z,27.18
2023-08-02T17:13:44.234Z,27.14
2023-08-02T17:16:12.341Z,27.12
2023-08-02T17:18:40.411Z,27.12
2023-08-02T17:21:08.613Z,27.07
2023-08-02T17:23:36.790Z,27.06
2023-08-02T17:26:09.311Z,27.01
2023-08-02T17:28:37.405Z,26.97
2023-08-02T17:31:05.531Z,26.90
2023-08-02T17:33:34.127Z,26.85
2023-08-02T17:36:02.269Z,26.83
2023-08-02T17:38:30.510Z,26.75
2023-08-02T17:40:59.474Z,26.73
2023-08-02T17:43:27.773Z,26.78
2023-08-02T17:45:55.890Z,26.77
2023-08-02T17:48:24.160Z,26.76
2023-08-02T17:51:00.467Z,26.77
2023-08-02T17:53:28.946Z,26.75
2023-08-02T17:56:01.448Z,26.75
2023-08-02T17:58:34.725Z,26.78
2023-08-02T18:01:21.875Z,26.76
2023-08-02T18:03:50.620Z,26.71
2023-08-02T18:06:20.494Z,26.69
2023-08-02T18:08:49.256Z,26.68
2023-08-02T18:11:18.102Z,26.64
2023-08-02T18:13:46.263Z,26.63
2023-08-02T18:16:14.379Z,26.57
2023-08-02T18:18:42.968Z,26.61
2023-08-02T18:21:11.310Z,26.58
2023-08-02T18:23:39.429Z,26.59
2023-08-02T18:26:07.680Z,26.54
2023-08-02T18:28:35.742Z,26.55
2023-08-02T18:31:04.349Z,26.54
2023-08-02T18:33:33.724Z,26.53
2023-08-02T18:36:15.446Z,26.55
2023-08-02T18:38:44.266Z,26.52
2023-08-02T18:41:23.259Z,26.46
2023-08-02T18:43:52.329Z,26.44
2023-08-02T18:46:21.025Z,26.42
2023-08-02T18:48:49.204Z,26.39
2023-08-02T18:51:20.520Z,26.32
2023-08-02T18:53:50.490Z,26.25
2023-08-02T18:56:18.926Z,26.07
2023-08-02T18:58:50.273Z,25.88
2023-08-02T19:01:18.490Z,25.61
2023-08-02T19:03:46.925Z,25.37
2023-08-02T19:06:16.387Z,25.04
2023-08-02T19:08:47.503Z,24.67
2023-08-02T19:11:23.596Z,24.37
2023-08-02T19:13:52.690Z,24.12
2023-08-02T19:16:20.918Z,23.89
2023-08-02T19:18:49.037Z,23.79
2023-08-02T19:21:17.594Z,23.60
2023-08-02T19:23:49.097Z,23.46
2023-08-02T19:26:21.155Z,23.33
2023-08-02T19:28:49.279Z,23.27
2023-08-02T19:31:17.410Z,23.19
2023-08-02T19:33:46.221Z,23.08
2023-08-02T19:36:21.554Z,22.97
2023-08-02T19:38:52.873Z,22.89
2023-08-02T19:41:30.635Z,22.72
2023-08-02T19:43:59.895Z,22.64
2023-08-02T19:46:28.514Z,22.60
2023-08-02T19:48:56.686Z,22.48
2023-08-02T19:51:24.664Z,22.45
2023-08-02T19:53:55.582Z,22.41
2023-08-02T19:56:26.336Z,22.35
2023-08-02T19:58:57.627Z,22.23
2023-08-02T20:01:30.775Z,22.21
2023-08-02T20:03:59.042Z,22.22
2023-08-02T20:06:28.319Z,22.20
2023-08-02T20:08:56.406Z,22.13
2023-08-02T20:11:24.445Z,22.11
2023-08-02T20:13:53.568Z,22.05
2023-08-02T20:16:23.463Z,22.01
2023-08-02T20:18:52.244Z,22.00
2023-08-02T20:21:22.857Z,21.96
2023-08-02T20:23:58.663Z,21.95
2023-08-02T20:26:27.595Z,21.92
2023-08-02T20:28:57.434Z,21.90
2023-08-02T20:31:26.323Z,21.89
2023-08-02T20:33:55.601Z,21.84
2023-08-02T20:36:24.530Z,21.87
2023-08-02T20:38:54.164Z,21.77
2023-08-02T20:41:26.341Z,21.73
2023-08-02T20:43:56.661Z,21.69
2023-08-02T20:46:29.212Z,21.51
2023-08-02T20:48:59.434Z,21.31
2023-08-02T20:51:30.733Z,21.14
2023-08-02T20:53:59.635Z,21.04
2023-08-02T20:56:27.923Z,20.94
2023-08-02T20:58:56.558Z,20.81
2023-08-02T21:01:24.706Z,20.63
2023-08-02T21:03:54.010Z,20.49
2023-08-02T21:06:22.068Z,20.41
2023-08-02T21:08:50.264Z,20.16
2023-08-02T21:11:18.353Z,20.07
2023-08-02T21:13:46.438Z,20.04
2023-08-02T21:16:15.765Z,19.97
2023-08-02T21:18:45.433Z,20.01
2023-08-02T21:21:15.058Z,19.85
2023-08-02T21:23:45.893Z,19.83
2023-08-02T21:26:23.115Z,19.73
2023-08-02T21:28:51.660Z,19.77
2023-08-02T21:31:20.577Z,19.77
2023-08-02T21:33:49.001Z,19.73
2023-08-02T21:36:23.588Z,19.72
2023-08-02T21:38:51.699Z,19.69
2023-08-02T21:41:19.893Z,19.63
2023-08-02T21:43:49.913Z,19.58
2023-08-02T21:46:19.644Z,19.58
2023-08-02T21:48:48.299Z,19.56
2023-08-02T21:51:16.884Z,19.47
2023-08-02T21:53:51.602Z,19.48
2023-08-02T21:56:20.204Z,19.45
2023-08-02T21:58:48.297Z,19.40
2023-08-02T22:01:22.254Z,19.39
2023-08-02T22:03:50.524Z,19.36
2023-08-02T22:06:30.626Z,19.38
2023-08-02T22:09:00.386Z,19.37
2023-08-02T22:11:28.500Z,19.41
2023-08-02T22:13:57.268Z,19.37
2023-08-02T22:16:25.401Z,19.39
2023-08-02T22:18:53.538Z,19.38
2023-08-02T22:21:23.139Z,19.39
2023-08-02T22:23:51.205Z,19.40
2023-08-02T22:26:19.401Z,19.43
2023-08-02T22:28:47.563Z,19.40
2023-08-02T22:31:15.681Z,19.38
2023-08-02T22:33:43.721Z,19.37
2023-08-02T22:36:11.754Z,19.35
2023-08-02T22:38:49.183Z,19.35
2023-08-02T22:41:17.837Z,19.39
2023-08-02T22:43:45.950Z,19.39
2023-08-02T22:46:14.240Z,19.37
2023-08-02T22:49:58.441Z,19.41
2023-08-02T22:51:30.369Z,19.39
2023-08-02T22:53:58.570Z,19.35
2023-08-02T22:56:29.465Z,19.35
2023-08-02T22:59:01.301Z,19.37
2023-08-02T23:01:29.441Z,19.34
2023-08-02T23:03:57.701Z,19.36
2023-08-02T23:06:28.152Z,19.31
2023-08-02T23:08:56.305Z,19.38
2023-08-02T23:11:24.720Z,19.32
2023-08-02T23:13:53.205Z,19.29
2023-08-02T23:16:26.162Z,19.33
2023-08-02T23:19:02.268Z,19.34
2023-08-02T23:21:35.750Z,19.36
2023-08-02T23:24:05.299Z,19.36
2023-08-02T23:26:33.428Z,19.38
2023-08-02T23:29:02.601Z,19.37
2023-08-02T23:31:30.913Z,19.44
2023-08-02T23:33:59.128Z,19.43
2023-08-02T23:36:27.159Z,19.39
2023-08-02T23:38:55.262Z,19.40
2023-08-02T23:41:23.329Z,19.45
2023-08-02T23:43:51.408Z,19.46
2023-08-02T23:46:19.380Z,19.46
2023-08-02T23:48:47.455Z,19.43
2023-08-02T23:51:16.948Z,19.46
2023-08-02T23:53:45.006Z,19.44
2023-08-02T23:56:13.130Z,19.47
2023-08-02T23:58:41.150Z,19.45
